createdAt,value
2017-05-05T00:02:21.023Z,101951
2017-05-05T00:04:49.933Z,101949
2017-05-05T00:07:18.845Z,101960
2017-05-05T00:09:47.796Z,101948
2017-05-05T00:12:16.693Z,101944
2017-05-05T00:14:45.594Z,101938
2017-05-05T00:17:14.548Z,101947
2017-05-05T00:19:43.459Z,101941
2017-05-05T00:22:13.120Z,101936
2017-05-05T00:24:42.072Z,101937
2017-05-05T00:27:10.993Z,101941
2017-05-05T00:29:39.911Z,101937
2017-05-05T00:32:08.847Z,101938
2017-05-05T00:34:37.772Z,101930
2017-05-05T00:37:06.691Z,101925
2017-05-05T00:39:35.617Z,101933
2017-05-05T00:42:04.531Z,101937
2017-05-05T00:44:33.428Z,101931
2017-05-05T00:47:02.352Z,101929
2017-05-05T00:49:31.262Z,101937
2017-05-05T00:52:00.896Z,101921
2017-05-05T00:54:29.842Z,101932
2017-05-05T00:56:58.755Z,101915
2017-05-05T00:59:27.679Z,101919
2017-05-05T01:01:56.601Z,101921
2017-05-05T01:04:25.497Z,101922
2017-05-05T01:06:54.389Z,101915
2017-05-05T01:09:23.327Z,101922
2017-05-05T01:11:52.966Z,101925
2017-05-05T01:14:21.856Z,101920
2017-05-05T01:16:50.798Z,101924
2017-05-05T01:19:19.711Z,101918
2017-05-05T01:21:49.349Z,101922
2017-05-05T01:24:18.491Z,101923
2017-05-05T01:26:47.389Z,101939
2017-05-05T01:29:16.284Z,101930
2017-05-05T01:31:45.223Z,101926
2017-05-05T01:34:14.126Z,101929
2017-05-05T01:36:43.030Z,101934
2017-05-05T01:39:11.958Z,101931
2017-05-05T01:41:41.596Z,101928
2017-05-05T01:44:10.496Z,101941
2017-05-05T01:46:39.435Z,101932
2017-05-05T01:49:08.354Z,101932
2017-05-05T01:51:38.007Z,101925
2017-05-05T01:54:06.937Z,101916
2017-05-05T01:56:35.837Z,101927
2017-05-05T01:59:05.487Z,101921
2017-05-05T02:01:34.417Z,101933
2017-05-05T02:04:03.314Z,101923
2017-05-05T02:06:32.229Z,101923
2017-05-05T02:09:01.908Z,101918
2017-05-05T02:11:30.815Z,101916
2017-05-05T02:13:59.719Z,101913
2017-05-05T02:16:29.421Z,101907
2017-05-05T02:18:58.337Z,101922
2017-05-05T02:21:27.255Z,101918
2017-05-05T02:23:56.175Z,101913
2017-05-05T02:26:25.076Z,101916
2017-05-05T02:28:53.973Z,101913
2017-05-05T02:31:22.899Z,101910
2017-05-05T02:33:51.814Z,101902
2017-05-05T02:36:20.711Z,101901
2017-05-05T02:38:49.648Z,101902
2017-05-05T02:41:18.567Z,101903
2017-05-05T02:43:47.467Z,101902
2017-05-05T02:46:16.388Z,101901
2017-05-05T02:48:45.281Z,101896
2017-05-05T02:51:14.177Z,101889
2017-05-05T02:53:43.111Z,101895
2017-05-05T02:56:12.763Z,101889
2017-05-05T02:58:41.677Z,101888
2017-05-05T03:01:10.626Z,101877
2017-05-05T03:03:39.528Z,101881
2017-05-05T03:06:08.424Z,101887
2017-05-05T03:08:38.094Z,101874
2017-05-05T03:11:06.989Z,101884
2017-05-05T03:13:35.886Z,101887
2017-05-05T03:16:04.832Z,101878
2017-05-05T03:18:33.743Z,101880
2017-05-05T03:21:02.636Z,101878
2017-05-05T03:23:31.565Z,101884
2017-05-05T03:26:00.492Z,101876
2017-05-05T03:28:29.407Z,101878
2017-05-05T03:30:58.329Z,101873
2017-05-05T03:33:27.243Z,101876
2017-05-05T03:35:56.904Z,101881
2017-05-05T03:38:25.825Z,101883
2017-05-05T03:40:54.739Z,101876
2017-05-05T03:43:24.396Z,101880
2017-05-05T03:45:53.338Z,101884
2017-05-05T03:48:22.237Z,101881
2017-05-05T03:50:51.892Z,101892
2017-05-05T03:53:21.210Z,101876
2017-05-05T03:55:50.104Z,101881
2017-05-05T03:58:19.019Z,101880
2017-05-05T04:00:47.958Z,101886
2017-05-05T04:03:16.854Z,101880
2017-05-05T04:05:45.748Z,101881
2017-05-05T04:08:14.684Z,101882
2017-05-05T04:10:43.577Z,101883
2017-05-05T04:13:12.499Z,101884
2017-05-05T04:15:41.421Z,101885
2017-05-05T04:18:10.329Z,101873
2017-05-05T04:20:39.231Z,101879
2017-05-05T04:23:09.142Z,101869
2017-05-05T04:25:38.056Z,101881
2017-05-05T04:28:06.970Z,101879
2017-05-05T04:30:35.915Z,101881
2017-05-05T04:33:04.818Z,101883
2017-05-05T04:35:33.724Z,101887
2017-05-05T04:38:03.410Z,101886
2017-05-05T04:40:32.320Z,101891
2017-05-05T04:43:01.248Z,101884
2017-05-05T04:45:30.186Z,101890
2017-05-05T04:47:59.085Z,101884
2017-05-05T04:50:27.975Z,101888
2017-05-05T04:52:56.913Z,101886
2017-05-05T04:55:25.813Z,101892
2017-05-05T04:57:54.726Z,101883
2017-05-05T05:00:23.646Z,101890
2017-05-05T05:02:52.588Z,101891
2017-05-05T05:05:21.488Z,101885
2017-05-05T05:07:50.420Z,101907
2017-05-05T05:10:19.317Z,101901
2017-05-05T05:12:48.228Z,101894
2017-05-05T05:15:17.924Z,101889
2017-05-05T05:17:46.816Z,101886
2017-05-05T05:20:15.712Z,101895
2017-05-05T05:22:44.655Z,101893
2017-05-05T05:25:13.575Z,101889
2017-05-05T05:27:42.518Z,101893
2017-05-05T05:30:11.459Z,101892
2017-05-05T05:32:40.357Z,101899
2017-05-05T05:35:09.274Z,101893
2017-05-05T05:37:38.193Z,101884
2017-05-05T05:40:07.829Z,101892
2017-05-05T05:42:36.726Z,101901
2017-05-05T05:45:05.687Z,101902
2017-05-05T05:47:35.325Z,101905
2017-05-05T05:50:04.221Z,101912
2017-05-05T05:52:33.155Z,101899
2017-05-05T05:55:02.056Z,101903
2017-05-05T05:57:30.960Z,101908
2017-05-05T05:59:59.881Z,101914
2017-05-05T06:02:28.780Z,101902
2017-05-05T06:04:57.690Z,101907
2017-05-05T06:07:26.632Z,101910
2017-05-05T06:09:56.288Z,101910
2017-05-05T06:12:25.185Z,101907
2017-05-05T06:14:54.123Z,101903
2017-05-05T06:17:23.763Z,101914
2017-05-05T06:19:52.660Z,101920
2017-05-05T06:22:21.586Z,101914
2017-05-05T06:24:50.501Z,101911
2017-05-05T06:27:19.419Z,101908
2017-05-05T06:29:48.339Z,101928
2017-05-05T06:32:17.236Z,101913
2017-05-05T06:34:46.133Z,101915
2017-05-05T06:37:15.075Z,101913
2017-05-05T06:39:44.731Z,101913
2017-05-05T06:42:13.638Z,101915
2017-05-05T06:44:42.560Z,101919
2017-05-05T06:47:11.488Z,101919
2017-05-05T06:49:40.389Z,101916
2017-05-05T06:52:09.331Z,101914
2017-05-05T06:54:38.245Z,101915
2017-05-05T06:57:07.899Z,101920
2017-05-05T06:59:36.853Z,101915
2017-05-05T07:02:05.752Z,101909
2017-05-05T07:04:34.674Z,101905
2017-05-05T07:07:03.612Z,101905
2017-05-05T07:09:33.244Z,101901
2017-05-05T07:12:02.156Z,101916
2017-05-05T07:14:31.080Z,101909
2017-05-05T07:16:59.977Z,101913
2017-05-05T07:19:28.877Z,101910
2017-05-05T07:21:57.808Z,101919
2017-05-05T07:24:26.723Z,101908
2017-05-05T07:26:55.644Z,101910
2017-05-05T07:29:24.572Z,101925
2017-05-05T07:31:53.493Z,101914
2017-05-05T07:34:22.412Z,101914
2017-05-05T07:36:51.347Z,101912
2017-05-05T07:39:20.982Z,101916
2017-05-05T07:41:49.884Z,101920
2017-05-05T07:44:18.839Z,101920
2017-05-05T07:46:48.477Z,101923
2017-05-05T07:49:17.392Z,101919
2017-05-05T07:51:46.356Z,101924
2017-05-05T07:54:15.249Z,101923
2017-05-05T07:56:44.158Z,101920
2017-05-05T07:59:13.088Z,101935
2017-05-05T08:01:42.010Z,101932
2017-05-05T08:04:10.923Z,101923
2017-05-05T08:06:39.861Z,101928
2017-05-05T08:09:08.755Z,101926
2017-05-05T08:11:37.675Z,101933
2017-05-05T08:14:06.595Z,101925
2017-05-05T08:16:35.830Z,101931
2017-05-05T08:19:05.506Z,101932
2017-05-05T08:21:34.443Z,101935
2017-05-05T08:24:03.355Z,101934
2017-05-05T08:26:33.056Z,101932
2017-05-05T08:29:02.751Z,101932
2017-05-05T08:31:32.424Z,101933
2017-05-05T08:34:01.366Z,101932
2017-05-05T08:36:31.067Z,101927
2017-05-05T08:38:59.997Z,101927
2017-05-05T08:41:28.919Z,101923
2017-05-05T08:43:57.853Z,101928
2017-05-05T08:46:27.509Z,101928
2017-05-05T08:48:56.406Z,101924
2017-05-05T08:51:25.359Z,101927
2017-05-05T08:53:54.265Z,101926
2017-05-05T08:56:23.176Z,101924
2017-05-05T08:58:52.114Z,101922
2017-05-05T09:01:21.793Z,101916
2017-05-05T09:03:50.703Z,101924
2017-05-05T09:06:19.655Z,101914
2017-05-05T09:08:48.579Z,101922
2017-05-05T09:11:17.588Z,101921
2017-05-05T09:13:47.284Z,101931
2017-05-05T09:16:16.200Z,101930
2017-05-05T09:18:45.949Z,101928
2017-05-05T09:21:14.914Z,101927
2017-05-05T09:23:44.549Z,101929
2017-05-05T09:26:13.467Z,101933
2017-05-05T09:28:42.389Z,101928
2017-05-05T09:31:11.289Z,101931
2017-05-05T09:33:40.957Z,101935
2017-05-05T09:36:09.886Z,101941
2017-05-05T09:38:38.809Z,101923
2017-05-05T09:41:07.716Z,101927
2017-05-05T09:43:36.656Z,101929
2017-05-05T09:46:05.574Z,101937
2017-05-05T09:48:35.213Z,101928
2017-05-05T09:51:04.142Z,101931
2017-05-05T09:53:33.054Z,101938
2017-05-05T09:56:02.711Z,101925
2017-05-05T09:58:31.655Z,101935
2017-05-05T10:01:00.567Z,101929
2017-05-05T10:03:29.536Z,101934
2017-05-05T10:05:59.235Z,101931
2017-05-05T10:08:28.163Z,101934
2017-05-05T10:10:57.083Z,101926
2017-05-05T10:13:26.024Z,101933
2017-05-05T10:15:55.683Z,101934
2017-05-05T10:18:24.589Z,101932
2017-05-05T10:20:53.557Z,101940
2017-05-05T10:23:22.459Z,101937
2017-05-05T10:25:51.357Z,101936
2017-05-05T10:28:20.295Z,101944
2017-05-05T10:30:49.940Z,101936
2017-05-05T10:33:18.846Z,101932
2017-05-05T10:35:47.775Z,101935
2017-05-05T10:38:16.687Z,101944
2017-05-05T10:40:46.346Z,101932
2017-05-05T10:43:15.272Z,101929
2017-05-05T10:45:44.173Z,101924
2017-05-05T10:48:13.818Z,101924
2017-05-05T10:50:42.779Z,101932
2017-05-05T10:53:12.435Z,101936
2017-05-05T10:55:41.352Z,101934
2017-05-05T10:58:10.277Z,101937
2017-05-05T11:00:39.921Z,101939
2017-05-05T11:03:08.821Z,101935
2017-05-05T11:05:37.744Z,101941
2017-05-05T11:08:06.645Z,101944
2017-05-05T11:10:35.541Z,101944
2017-05-05T11:13:04.484Z,101940
2017-05-05T11:15:33.403Z,101937
2017-05-05T11:18:02.302Z,101935
2017-05-05T11:20:31.244Z,101938
2017-05-05T11:23:00.164Z,101936
2017-05-05T11:25:29.065Z,101937
2017-05-05T11:27:57.993Z,101934
2017-05-05T11:30:27.637Z,101941
2017-05-05T11:32:56.556Z,101933
2017-05-05T11:35:25.498Z,101935
2017-05-05T11:37:55.161Z,101942
2017-05-05T11:40:24.075Z,101941
2017-05-05T11:42:53.001Z,101942
2017-05-05T11:45:21.896Z,101944
2017-05-05T11:47:50.810Z,101935
2017-05-05T11:50:19.845Z,101942
2017-05-05T11:52:48.763Z,101945
2017-05-05T11:55:17.668Z,101944
2017-05-05T11:57:46.597Z,101948
2017-05-05T12:00:15.500Z,101951
2017-05-05T12:02:44.413Z,101941
2017-05-05T12:05:13.346Z,101940
2017-05-05T12:07:42.251Z,101941
2017-05-05T12:10:11.897Z,101944
2017-05-05T12:12:41.807Z,101940
2017-05-05T12:15:10.724Z,101946
2017-05-05T12:17:39.646Z,101937
2017-05-05T12:20:08.571Z,101941
2017-05-05T12:22:37.473Z,101940
2017-05-05T12:25:07.117Z,101944
2017-05-05T12:27:36.067Z,101946
2017-05-05T12:30:04.988Z,101941
2017-05-05T12:32:33.912Z,101943
2017-05-05T12:35:02.836Z,101940
2017-05-05T12:37:31.737Z,101937
2017-05-05T12:40:01.402Z,101943
2017-05-05T12:42:30.351Z,101942
2017-05-05T12:45:00.020Z,101929
2017-05-05T12:47:28.925Z,101933
2017-05-05T12:49:58.055Z,101939
2017-05-05T12:52:26.983Z,101940
2017-05-05T12:54:55.903Z,101934
2017-05-05T12:57:24.829Z,101936
2017-05-05T12:59:53.736Z,101929
2017-05-05T13:02:22.658Z,101937
2017-05-05T13:04:52.359Z,101932
2017-05-05T13:07:21.264Z,101938
2017-05-05T13:09:50.923Z,101932
2017-05-05T13:12:19.880Z,101934
2017-05-05T13:14:48.810Z,101942
2017-05-05T13:17:17.711Z,101945
2017-05-05T13:19:46.653Z,101938
2017-05-05T13:22:15.556Z,101930
2017-05-05T13:24:44.475Z,101920
2017-05-05T13:27:17.092Z,101927
2017-05-05T13:29:46.023Z,101934
2017-05-05T13:32:14.952Z,101921
2017-05-05T13:34:43.917Z,101922
2017-05-05T13:37:12.824Z,101924
2017-05-05T13:39:41.729Z,101922
2017-05-05T13:42:11.205Z,101927
2017-05-05T13:44:40.119Z,101924
2017-05-05T13:47:09.020Z,101925
2017-05-05T13:49:37.953Z,101913
2017-05-05T13:52:07.623Z,101914
2017-05-05T13:54:36.547Z,101916
2017-05-05T13:57:06.219Z,101908
2017-05-05T13:59:35.122Z,101916
2017-05-05T14:02:04.028Z,101908
2017-05-05T14:04:32.972Z,101914
2017-05-05T14:07:01.875Z,101910
2017-05-05T14:09:30.781Z,101902
2017-05-05T14:11:59.727Z,101904
2017-05-05T14:14:28.669Z,101902
2017-05-05T14:16:57.588Z,101907
2017-05-05T14:19:27.280Z,101915
2017-05-05T14:21:56.207Z,101915
2017-05-05T14:24:25.850Z,101910
2017-05-05T14:26:54.778Z,101921
2017-05-05T14:29:23.699Z,101913
2017-05-05T14:31:53.351Z,101906
2017-05-05T14:34:22.275Z,101895
2017-05-05T14:36:51.171Z,101897
2017-05-05T14:39:20.095Z,101894
2017-05-05T14:41:49.035Z,101902
2017-05-05T14:44:17.935Z,101885
2017-05-05T14:46:46.855Z,101894
2017-05-05T14:49:16.543Z,101894
2017-05-05T14:51:45.444Z,101896
2017-05-05T14:54:14.341Z,101892
2017-05-05T14:56:44.027Z,101896
2017-05-05T14:59:12.947Z,101898
2017-05-05T15:01:42.604Z,101890
2017-05-05T15:04:11.530Z,101891
2017-05-05T15:06:40.894Z,101893
2017-05-05T15:09:09.811Z,101889
2017-05-05T15:11:38.741Z,101895
2017-05-05T15:14:08.395Z,101891
2017-05-05T15:16:37.317Z,101892
2017-05-05T15:19:06.262Z,101890
2017-05-05T15:21:35.179Z,101888
2017-05-05T15:24:04.092Z,101884
2017-05-05T15:26:33.043Z,101887
2017-05-05T15:29:01.960Z,101885
2017-05-05T15:31:30.865Z,101887
2017-05-05T15:33:59.790Z,101893
2017-05-05T15:36:29.447Z,101883
2017-05-05T15:38:58.368Z,101893
2017-05-05T15:41:27.301Z,101881
2017-05-05T15:43:56.222Z,101885
2017-05-05T15:46:25.126Z,101878
2017-05-05T15:48:54.076Z,101884
2017-05-05T15:51:23.055Z,101888
2017-05-05T15:53:51.984Z,101876
2017-05-05T15:56:20.914Z,101876
2017-05-05T15:58:49.825Z,101864
2017-05-05T16:01:19.469Z,101875
2017-05-05T16:03:48.401Z,101887
2017-05-05T16:06:17.327Z,101875
2017-05-05T16:08:46.255Z,101881
2017-05-05T16:11:15.203Z,101871
2017-05-05T16:13:44.873Z,101869
2017-05-05T16:16:13.776Z,101875
2017-05-05T16:18:42.708Z,101876
2017-05-05T16:21:11.635Z,101877
2017-05-05T16:23:40.559Z,101869
2017-05-05T16:26:09.508Z,101865
2017-05-05T16:28:38.436Z,101864
2017-05-05T16:31:07.344Z,101879
2017-05-05T16:33:36.277Z,101874
2017-05-05T16:36:05.189Z,101876
2017-05-05T16:38:34.100Z,101874
2017-05-05T16:41:03.051Z,101880
2017-05-05T16:43:31.960Z,101878
2017-05-05T16:46:00.888Z,101864
2017-05-05T16:48:29.824Z,101874
2017-05-05T16:50:58.748Z,101870
2017-05-05T16:53:27.658Z,101871
2017-05-05T16:55:56.608Z,101876
2017-05-05T16:58:25.516Z,101877
2017-05-05T17:00:54.422Z,101873
2017-05-05T17:03:23.374Z,101876
2017-05-05T17:05:52.301Z,101871
2017-05-05T17:08:21.223Z,101873
2017-05-05T17:10:50.157Z,101871
2017-05-05T17:13:19.080Z,101871
2017-05-05T17:15:48.798Z,101869
2017-05-05T17:18:17.789Z,101864
2017-05-05T17:20:46.736Z,101860
2017-05-05T17:23:15.662Z,101862
2017-05-05T17:25:44.611Z,101857
2017-05-05T17:28:14.473Z,101864
2017-05-05T17:30:43.397Z,101849
2017-05-05T17:33:12.371Z,101850
2017-05-05T17:35:41.326Z,101851
2017-05-05T17:38:10.282Z,101856
2017-05-05T17:40:39.980Z,101858
2017-05-05T17:43:08.931Z,101857
2017-05-05T17:45:37.881Z,101865
2017-05-05T17:48:07.607Z,101858
2017-05-05T17:50:37.252Z,101861
2017-05-05T17:53:06.188Z,101857
2017-05-05T17:55:36.150Z,101870
2017-05-05T17:58:05.062Z,101859
2017-05-05T18:00:34.003Z,101861
2017-05-05T18:03:03.699Z,101863
2017-05-05T18:05:33.401Z,101861
2017-05-05T18:08:02.332Z,101860
2017-05-05T18:10:31.305Z,101860
2017-05-05T18:13:00.956Z,101871
2017-05-05T18:15:29.881Z,101869
2017-05-05T18:17:58.814Z,101858
2017-05-05T18:20:27.726Z,101850
2017-05-05T18:22:56.647Z,101853
2017-05-05T18:25:25.640Z,101860
2017-05-05T18:27:54.603Z,101857
2017-05-05T18:30:23.587Z,101861
2017-05-05T18:32:52.529Z,101853
2017-05-05T18:35:21.468Z,101856
2017-05-05T18:37:50.406Z,101853
2017-05-05T18:40:19.393Z,101852
2017-05-05T18:42:48.341Z,101849
2017-05-05T18:45:17.399Z,101857
2017-05-05T18:47:46.379Z,101855
2017-05-05T18:50:15.335Z,101858
2017-05-05T18:52:44.270Z,101854
2017-05-05T18:55:13.299Z,101847
2017-05-05T18:57:42.259Z,101852
2017-05-05T19:00:11.194Z,101851
2017-05-05T19:02:40.137Z,101855
2017-05-05T19:05:09.040Z,101862
2017-05-05T19:07:38.028Z,101858
2017-05-05T19:10:06.965Z,101863
2017-05-05T19:12:35.868Z,101857
2017-05-05T19:15:04.779Z,101864
2017-05-05T19:17:34.473Z,101865
2017-05-05T19:20:03.404Z,101869
2017-05-05T19:22:32.327Z,101870
2017-05-05T19:25:01.296Z,101863
2017-05-05T19:27:30.203Z,101870
2017-05-05T19:29:59.121Z,101876
2017-05-05T19:32:28.140Z,101884
2017-05-05T19:34:57.089Z,101869
2017-05-05T19:37:26.032Z,101876
2017-05-05T19:39:55.709Z,101877
2017-05-05T19:42:24.719Z,101873
2017-05-05T19:44:53.642Z,101883
2017-05-05T19:47:22.591Z,101875
2017-05-05T19:49:51.504Z,101872
2017-05-05T19:52:20.427Z,101870
2017-05-05T19:54:49.378Z,101878
2017-05-05T19:57:18.316Z,101879
2017-05-05T19:59:47.264Z,101874
2017-05-05T20:02:16.198Z,101883
2017-05-05T20:04:45.106Z,101888
2017-05-05T20:07:14.134Z,101882
2017-05-05T20:09:43.080Z,101876
2017-05-05T20:12:12.002Z,101881
2017-05-05T20:14:41.001Z,101891
2017-05-05T20:17:09.936Z,101884
2017-05-05T20:19:39.588Z,101888
2017-05-05T20:22:08.496Z,101886
2017-05-05T20:24:37.635Z,101887
2017-05-05T20:27:06.559Z,101888
2017-05-05T20:29:35.513Z,101887
2017-05-05T20:32:05.294Z,101888
2017-05-05T20:34:34.228Z,101884
2017-05-05T20:37:03.155Z,101887
2017-05-05T20:39:32.089Z,101895
2017-05-05T20:42:01.020Z,101893
2017-05-05T20:44:30.672Z,101893
2017-05-05T20:46:59.652Z,101891
2017-05-05T20:49:28.583Z,101894
2017-05-05T20:51:57.585Z,101889
2017-05-05T20:54:26.572Z,101888
2017-05-05T20:56:55.499Z,101885
2017-05-05T20:59:25.158Z,101885
2017-05-05T21:01:54.089Z,101880
2017-05-05T21:04:23.765Z,101880
2017-05-05T21:06:52.691Z,101880
2017-05-05T21:09:22.388Z,101879
2017-05-05T21:11:51.315Z,101875
2017-05-05T21:14:20.243Z,101884
2017-05-05T21:16:49.199Z,101881
2017-05-05T21:19:18.127Z,101883
2017-05-05T21:21:47.073Z,101877
2017-05-05T21:24:17.053Z,101872
2017-05-05T21:26:45.980Z,101876
2017-05-05T21:29:15.756Z,101869
2017-05-05T21:31:44.693Z,101861
2017-05-05T21:34:14.343Z,101859
2017-05-05T21:36:43.285Z,101860
2017-05-05T21:39:13.016Z,101853
2017-05-05T21:41:41.940Z,101850
2017-05-05T21:44:11.486Z,101852
2017-05-05T21:46:40.431Z,101855
2017-05-05T21:49:10.148Z,101846
2017-05-05T21:51:39.074Z,101851
2017-05-05T21:54:08.010Z,101854
2017-05-05T21:56:36.931Z,101848
2017-05-05T21:59:05.858Z,101848
2017-05-05T22:01:34.826Z,101837
2017-05-05T22:04:03.897Z,101840
2017-05-05T22:06:32.804Z,101837
2017-05-05T22:09:01.764Z,101836
2017-05-05T22:11:30.721Z,101847
2017-05-05T22:13:59.635Z,101842
2017-05-05T22:16:28.602Z,101835
2017-05-05T22:18:57.511Z,101833
2017-05-05T22:21:27.219Z,101843
2017-05-05T22:23:56.929Z,101848
2017-05-05T22:26:26.588Z,101840
2017-05-05T22:28:55.555Z,101833
2017-05-05T22:31:24.512Z,101843
2017-05-05T22:33:53.513Z,101840
2017-05-05T22:36:23.169Z,101847
2017-05-05T22:38:52.146Z,101837
2017-05-05T22:41:21.070Z,101841
2017-05-05T22:43:49.995Z,101851
2017-05-05T22:46:18.952Z,101841
2017-05-05T22:48:47.880Z,101840
2017-05-05T22:51:16.807Z,101841
2017-05-05T22:53:45.753Z,101838
2017-05-05T22:56:14.685Z,101847
2017-05-05T22:58:43.613Z,101842
2017-05-05T23:01:12.563Z,101827
2017-05-05T23:03:42.223Z,101835
2017-05-05T23:06:11.147Z,101831
2017-05-05T23:08:40.081Z,101831
2017-05-05T23:11:08.989Z,101827
2017-05-05T23:13:37.893Z,101834
2017-05-05T23:16:06.844Z,101838
2017-05-05T23:18:35.769Z,101838
2017-05-05T23:23:39.129Z,101825
2017-05-05T23:26:08.854Z,101820
2017-05-05T23:28:37.832Z,101821
2017-05-05T23:31:07.569Z,101821
2017-05-05T23:33:36.552Z,101826
2017-05-05T23:36:05.531Z,101818
2017-05-05T23:38:35.209Z,101811
2017-05-05T23:41:04.132Z,101820
2017-05-05T23:43:33.780Z,101815
2017-05-05T23:46:02.732Z,101814
2017-05-05T23:48:32.381Z,101816
2017-05-05T23:51:05.351Z,101809
2017-05-05T23:53:34.995Z,101801
2017-05-05T23:56:03.962Z,101809
2017-05-05T23:58:32.942Z,101808
